createdAt,value
2023-05-13T00:01:20.823Z,4.60
2023-05-13T00:03:47.587Z,4.57
2023-05-13T00:06:14.367Z,4.28
2023-05-13T00:08:41.030Z,4.13
2023-05-13T00:11:07.896Z,4.25
2023-05-13T00:13:34.695Z,4.28
2023-05-13T00:16:01.300Z,4.13
2023-05-13T00:18:27.927Z,4.07
2023-05-13T00:20:54.671Z,3.67
2023-05-13T00:23:21.367Z,4.35
2023-05-13T00:25:48.026Z,4.15
2023-05-13T00:28:15.125Z,4.38
2023-05-13T00:30:45.841Z,3.90
2023-05-13T00:33:12.628Z,4.47
2023-05-13T00:35:39.827Z,4.65
2023-05-13T00:38:07.010Z,3.90
2023-05-13T00:40:38.043Z,4.30
2023-05-13T00:43:04.778Z,4.40
2023-05-13T00:45:31.575Z,4.60
2023-05-13T00:47:59.387Z,4.22
2023-05-13T00:50:26.151Z,4.85
2023-05-13T00:52:53.754Z,4.47
2023-05-13T00:55:21.430Z,4.55
2023-05-13T00:57:48.103Z,4.22
2023-05-13T01:00:15.279Z,4.53
2023-05-13T01:03:01.415Z,4.78
2023-05-13T01:05:48.618Z,3.85
2023-05-13T01:08:37.824Z,4.63
2023-05-13T01:11:10.540Z,4.72
2023-05-13T01:13:42.982Z,4.78
2023-05-13T01:16:16.360Z,4.25
2023-05-13T01:19:35.360Z,4.90
2023-05-13T01:22:01.942Z,4.72
2023-05-13T01:24:28.705Z,4.22
2023-05-13T01:26:56.429Z,4.45
2023-05-13T01:29:23.147Z,4.53
2023-05-13T01:31:51.075Z,4.43
2023-05-13T01:34:20.649Z,4.35
2023-05-13T01:36:48.659Z,4.80
2023-05-13T01:39:19.773Z,4.80
2023-05-13T01:41:48.510Z,4.80
2023-05-13T01:44:15.799Z,5.10
2023-05-13T01:46:46.930Z,4.80
2023-05-13T01:49:14.168Z,4.38
2023-05-13T01:51:41.399Z,5.15
2023-05-13T01:54:07.981Z,4.75
2023-05-13T01:56:38.893Z,4.95
2023-05-13T01:59:05.648Z,4.90
2023-05-13T02:01:32.231Z,5.15
2023-05-13T02:04:00.095Z,5.35
2023-05-13T02:06:28.003Z,5.55
2023-05-13T02:08:55.006Z,5.22
2023-05-13T02:11:22.461Z,5.45
2023-05-13T02:13:49.158Z,5.25
2023-05-13T02:16:19.789Z,5.22
2023-05-13T02:18:46.557Z,5.10
2023-05-13T02:21:13.281Z,5.57
2023-05-13T02:23:40.318Z,5.20
2023-05-13T02:26:06.947Z,6.03
2023-05-13T02:28:33.516Z,5.88
2023-05-13T02:31:00.815Z,5.80
2023-05-13T02:33:27.560Z,5.30
2023-05-13T02:35:54.252Z,5.85
2023-05-13T02:38:20.963Z,5.88
2023-05-13T02:40:48.220Z,6.47
2023-05-13T02:43:15.020Z,5.85
2023-05-13T02:45:49.466Z,6.47
2023-05-13T02:48:17.095Z,5.78
2023-05-13T02:50:44.719Z,6.88
2023-05-13T02:53:11.772Z,6.32
2023-05-13T02:55:43.472Z,6.10
2023-05-13T02:58:10.157Z,5.93
2023-05-13T03:00:36.992Z,6.57
2023-05-13T03:03:03.742Z,6.32
2023-05-13T03:05:30.689Z,5.90
2023-05-13T03:07:58.248Z,6.40
2023-05-13T03:10:25.974Z,6.47
2023-05-13T03:12:52.613Z,5.95
2023-05-13T03:15:19.335Z,6.20
2023-05-13T03:17:45.933Z,6.28
2023-05-13T03:20:12.870Z,6.60
2023-05-13T03:22:40.136Z,6.90
2023-05-13T03:25:07.742Z,6.68
2023-05-13T03:27:42.433Z,6.90
2023-05-13T03:30:10.790Z,6.78
2023-05-13T03:32:45.414Z,7.32
2023-05-13T03:35:12.688Z,6.80
2023-05-13T03:37:39.524Z,6.32
2023-05-13T03:40:08.135Z,7.20
2023-05-13T03:42:35.765Z,7.53
2023-05-13T03:45:04.786Z,7.10
2023-05-13T03:47:33.315Z,7.50
2023-05-13T03:50:05.014Z,6.88
2023-05-13T03:52:38.331Z,7.07
2023-05-13T03:55:06.205Z,7.35
2023-05-13T03:57:34.305Z,7.78
2023-05-13T04:00:01.098Z,6.65
2023-05-13T04:02:27.754Z,6.93
2023-05-13T04:04:54.409Z,7.00
2023-05-13T04:07:21.004Z,7.53
2023-05-13T04:09:47.598Z,7.03
2023-05-13T04:12:15.685Z,7.45
2023-05-13T04:14:42.206Z,7.28
2023-05-13T04:17:08.794Z,7.32
2023-05-13T04:19:35.375Z,8.15
2023-05-13T04:22:01.944Z,7.13
2023-05-13T04:24:28.554Z,7.63
2023-05-13T04:26:55.218Z,7.13
2023-05-13T04:29:21.797Z,7.28
2023-05-13T04:31:48.439Z,7.28
2023-05-13T04:34:15.300Z,6.95
2023-05-13T04:36:42.582Z,8.13
2023-05-13T04:39:10.902Z,7.60
2023-05-13T04:41:37.512Z,8.15
2023-05-13T04:44:06.192Z,7.45
2023-05-13T04:46:33.384Z,7.43
2023-05-13T04:49:00.018Z,7.55
2023-05-13T04:51:27.011Z,7.65
2023-05-13T04:53:54.022Z,6.97
2023-05-13T04:56:21.765Z,7.85
2023-05-13T04:58:48.724Z,7.57
2023-05-13T05:01:16.033Z,7.63
2023-05-13T05:03:42.724Z,7.60
2023-05-13T05:06:09.675Z,7.40
2023-05-13T05:08:36.270Z,8.20
2023-05-13T05:11:02.908Z,7.30
2023-05-13T05:13:32.126Z,7.40
2023-05-13T05:15:59.155Z,7.20
2023-05-13T05:18:25.843Z,7.85
2023-05-13T05:20:52.493Z,8.45
2023-05-13T05:23:21.291Z,7.88
2023-05-13T05:25:53.240Z,8.30
2023-05-13T05:28:27.616Z,8.57
2023-05-13T05:30:54.223Z,9.05
2023-05-13T05:33:25.237Z,8.18
2023-05-13T05:35:51.813Z,8.30
2023-05-13T05:38:20.505Z,8.55
2023-05-13T05:40:47.402Z,8.48
2023-05-13T05:43:14.640Z,8.70
2023-05-13T05:45:41.275Z,8.48
2023-05-13T05:48:11.299Z,7.93
2023-05-13T05:50:38.125Z,7.72
2023-05-13T05:53:07.136Z,7.78
2023-05-13T05:55:36.354Z,6.97
2023-05-13T05:58:05.472Z,7.43
2023-05-13T06:00:33.935Z,6.97
2023-05-13T06:03:00.643Z,7.55
2023-05-13T06:05:27.537Z,7.10
2023-05-13T06:07:54.097Z,7.25
2023-05-13T06:10:21.082Z,8.38
2023-05-13T06:12:47.953Z,7.35
2023-05-13T06:15:14.598Z,6.90
2023-05-13T06:17:41.941Z,8.30
2023-05-13T06:20:09.028Z,7.35
2023-05-13T06:22:35.789Z,7.82
2023-05-13T06:25:02.425Z,7.28
2023-05-13T06:27:29.031Z,8.00
2023-05-13T06:29:55.602Z,7.45
2023-05-13T06:32:22.161Z,6.90
2023-05-13T06:34:49.492Z,7.90
2023-05-13T06:37:16.162Z,6.57
2023-05-13T06:39:43.284Z,7.50
2023-05-13T06:42:10.703Z,6.95
2023-05-13T06:44:44.038Z,6.68
2023-05-13T06:47:14.687Z,7.75
2023-05-13T06:49:42.319Z,7.05
2023-05-13T06:52:12.129Z,7.75
2023-05-13T06:54:38.740Z,7.60
2023-05-13T06:57:05.693Z,6.32
2023-05-13T06:59:32.267Z,6.68
2023-05-13T07:01:58.854Z,6.28
2023-05-13T07:04:25.685Z,6.57
2023-05-13T07:06:52.308Z,6.40
2023-05-13T07:09:18.849Z,6.05
2023-05-13T07:11:45.341Z,6.40
2023-05-13T07:14:11.877Z,6.72
2023-05-13T07:16:38.506Z,6.07
2023-05-13T07:19:05.216Z,7.38
2023-05-13T07:21:31.798Z,6.40
2023-05-13T07:23:58.366Z,6.93
2023-05-13T07:26:24.910Z,5.65
2023-05-13T07:28:51.448Z,6.35
2023-05-13T07:31:18.106Z,6.20
2023-05-13T07:33:44.718Z,5.68
2023-05-13T07:36:11.211Z,5.57
2023-05-13T07:38:37.778Z,5.47
2023-05-13T07:41:04.468Z,6.03
2023-05-13T07:43:32.029Z,5.93
2023-05-13T07:45:58.784Z,5.30
2023-05-13T07:48:25.698Z,5.93
2023-05-13T07:50:52.443Z,5.97
2023-05-13T07:53:19.829Z,6.03
2023-05-13T07:55:46.663Z,5.78
2023-05-13T07:58:13.268Z,6.13
2023-05-13T08:00:39.859Z,5.95
2023-05-13T08:03:06.697Z,6.00
2023-05-13T08:05:33.406Z,6.68
2023-05-13T08:08:00.044Z,5.75
2023-05-13T08:10:26.704Z,5.75
2023-05-13T08:12:57.557Z,5.82
2023-05-13T08:15:24.979Z,5.68
2023-05-13T08:17:53.774Z,5.50
2023-05-13T08:20:23.047Z,5.13
2023-05-13T08:22:49.721Z,4.40
2023-05-13T08:25:16.443Z,4.40
2023-05-13T08:27:44.203Z,4.78
2023-05-13T08:30:11.259Z,5.22
2023-05-13T08:32:37.852Z,5.97
2023-05-13T08:35:04.757Z,5.95
2023-05-13T08:37:31.584Z,4.72
2023-05-13T08:40:00.524Z,5.30
2023-05-13T08:42:37.786Z,4.40
2023-05-13T08:45:05.687Z,4.78
2023-05-13T08:47:51.077Z,4.85
2023-05-13T08:50:19.234Z,3.97
2023-05-13T08:52:46.045Z,4.93
2023-05-13T08:55:13.084Z,4.30
2023-05-13T08:57:39.754Z,4.75
2023-05-13T09:00:08.138Z,5.10
2023-05-13T09:02:34.870Z,4.55
2023-05-13T09:05:07.480Z,4.18
2023-05-13T09:07:36.842Z,4.20
2023-05-13T09:10:07.740Z,4.18
2023-05-13T09:12:51.711Z,4.15
2023-05-13T09:15:21.529Z,3.72
2023-05-13T09:17:51.425Z,4.50
2023-05-13T09:20:20.073Z,3.97
2023-05-13T09:22:55.412Z,3.85
2023-05-13T09:25:25.208Z,4.22
2023-05-13T09:27:57.485Z,4.18
2023-05-13T09:30:28.259Z,4.30
2023-05-13T09:33:19.611Z,4.00
2023-05-13T09:35:52.797Z,4.13
2023-05-13T09:38:25.207Z,4.20
2023-05-13T09:40:55.762Z,4.68
2023-05-13T09:43:24.216Z,3.75
2023-05-13T09:45:55.421Z,4.45
2023-05-13T09:48:25.186Z,4.10
2023-05-13T09:50:52.498Z,4.80
2023-05-13T09:53:21.165Z,4.28
2023-05-13T09:55:49.175Z,4.00
2023-05-13T09:58:20.106Z,4.50
2023-05-13T10:00:47.753Z,4.38
2023-05-13T10:03:15.922Z,4.28
2023-05-13T10:05:42.802Z,4.03
2023-05-13T10:08:11.922Z,3.50
2023-05-13T10:10:39.785Z,4.18
2023-05-13T10:13:09.299Z,4.60
2023-05-13T10:15:36.120Z,4.07
2023-05-13T10:18:05.979Z,4.10
2023-05-13T10:20:34.008Z,3.38
2023-05-13T10:23:00.643Z,4.00
2023-05-13T10:25:27.892Z,4.47
2023-05-13T10:27:57.740Z,3.95
2023-05-13T10:30:26.501Z,3.90
2023-05-13T10:32:54.546Z,4.50
2023-05-13T10:35:25.332Z,3.97
2023-05-13T10:38:17.543Z,3.92
2023-05-13T10:41:08.047Z,3.83
2023-05-13T10:43:35.221Z,3.83
2023-05-13T10:46:06.514Z,4.10
2023-05-13T10:48:39.522Z,4.70
2023-05-13T10:51:09.128Z,4.65
2023-05-13T10:53:49.186Z,4.00
2023-05-13T10:56:19.260Z,4.70
2023-05-13T10:58:58.547Z,3.90
2023-05-13T11:01:29.501Z,4.15
2023-05-13T11:03:59.131Z,4.15
2023-05-13T11:06:40.818Z,4.00
2023-05-13T11:09:14.645Z,4.90
2023-05-13T11:11:41.906Z,4.03
2023-05-13T11:14:14.058Z,3.90
2023-05-13T11:16:48.880Z,3.78
2023-05-13T11:19:25.822Z,3.60
2023-05-13T11:21:54.229Z,3.70
2023-05-13T11:24:22.017Z,3.35
2023-05-13T11:26:49.830Z,3.33
2023-05-13T11:29:37.327Z,3.70
2023-05-13T11:32:05.782Z,3.15
2023-05-13T11:34:33.979Z,3.33
2023-05-13T11:37:03.564Z,3.80
2023-05-13T11:39:30.826Z,3.15
2023-05-13T11:41:57.586Z,3.03
2023-05-13T11:44:25.644Z,2.63
2023-05-13T11:46:56.227Z,3.20
2023-05-13T11:49:42.072Z,3.45
2023-05-13T11:52:14.482Z,3.42
2023-05-13T11:54:46.303Z,3.05
2023-05-13T11:57:20.203Z,2.63
2023-05-13T11:59:53.939Z,3.13
2023-05-13T12:02:22.206Z,3.10
2023-05-13T12:04:49.108Z,2.80
2023-05-13T12:07:20.072Z,3.53
2023-05-13T12:09:46.605Z,2.75
2023-05-13T12:12:14.574Z,2.85
2023-05-13T12:14:42.250Z,2.97
2023-05-13T12:17:09.030Z,2.47
2023-05-13T12:19:37.291Z,2.35
2023-05-13T12:22:05.622Z,2.60
2023-05-13T12:24:35.411Z,2.40
2023-05-13T12:27:08.631Z,2.72
2023-05-13T12:29:42.911Z,2.20
2023-05-13T12:32:11.270Z,2.60
2023-05-13T12:34:38.970Z,2.47
2023-05-13T12:37:12.827Z,2.63
2023-05-13T12:39:41.478Z,2.38
2023-05-13T12:42:18.542Z,2.67
2023-05-13T12:44:45.850Z,3.03
2023-05-13T12:47:15.210Z,2.33
2023-05-13T12:49:52.394Z,2.33
2023-05-13T12:52:19.487Z,2.15
2023-05-13T12:54:46.256Z,2.58
2023-05-13T12:57:12.871Z,2.50
2023-05-13T12:59:39.520Z,2.40
2023-05-13T13:02:06.816Z,2.40
2023-05-13T13:04:33.364Z,2.25
2023-05-13T13:06:59.900Z,2.40
2023-05-13T13:09:26.418Z,2.67
2023-05-13T13:11:53.017Z,2.40
2023-05-13T13:14:19.611Z,2.45
2023-05-13T13:16:46.784Z,2.33
2023-05-13T13:19:13.440Z,2.63
2023-05-13T13:21:40.059Z,2.00
2023-05-13T13:24:06.820Z,2.15
2023-05-13T13:26:33.424Z,2.25
2023-05-13T13:29:00.000Z,2.35
2023-05-13T13:31:26.622Z,2.33
2023-05-13T13:33:53.948Z,2.60
2023-05-13T13:36:20.647Z,2.30
2023-05-13T13:38:47.240Z,2.17
2023-05-13T13:41:13.911Z,2.30
2023-05-13T13:43:40.441Z,2.10
2023-05-13T13:46:07.197Z,2.13
2023-05-13T13:48:33.839Z,2.10
2023-05-13T13:51:00.553Z,3.88
2023-05-13T13:53:27.103Z,2.63
2023-05-13T13:55:53.686Z,2.45
2023-05-13T13:58:20.379Z,2.58
2023-05-13T14:00:46.916Z,2.58
2023-05-13T14:03:13.654Z,2.25
2023-05-13T14:05:40.279Z,2.22
2023-05-13T14:08:07.006Z,2.35
2023-05-13T14:10:33.556Z,2.42
2023-05-13T14:13:00.079Z,2.33
2023-05-13T14:15:28.850Z,2.47
2023-05-13T14:17:55.647Z,2.63
2023-05-13T14:20:22.863Z,2.28
2023-05-13T14:22:49.623Z,2.50
2023-05-13T14:25:16.552Z,2.25
2023-05-13T14:27:43.122Z,2.33
2023-05-13T14:30:09.867Z,2.65
2023-05-13T14:32:36.452Z,2.03
2023-05-13T14:35:03.030Z,2.10
2023-05-13T14:37:29.604Z,2.47
2023-05-13T14:39:56.109Z,2.25
2023-05-13T14:42:22.739Z,2.28
2023-05-13T14:44:49.355Z,2.08
2023-05-13T14:47:15.908Z,2.55
2023-05-13T14:49:42.556Z,2.70
2023-05-13T14:52:09.103Z,2.20
2023-05-13T14:54:36.871Z,2.35
2023-05-13T14:57:04.438Z,2.60
2023-05-13T14:59:32.220Z,2.40
2023-05-13T15:01:58.839Z,2.53
2023-05-13T15:04:25.432Z,2.75
2023-05-13T15:06:52.155Z,2.60
2023-05-13T15:09:19.654Z,2.35
2023-05-13T15:11:46.248Z,2.72
2023-05-13T15:14:12.888Z,2.50
2023-05-13T15:16:39.609Z,2.58
2023-05-13T15:19:07.294Z,2.50
2023-05-13T15:21:34.007Z,2.33
2023-05-13T15:24:00.575Z,2.53
2023-05-13T15:26:27.199Z,2.30
2023-05-13T15:28:53.964Z,2.50
2023-05-13T15:31:20.901Z,2.20
2023-05-13T15:33:47.465Z,2.60
2023-05-13T15:36:14.006Z,2.42
2023-05-13T15:38:40.719Z,2.40
2023-05-13T15:41:07.471Z,2.30
2023-05-13T15:43:34.415Z,2.30
2023-05-13T15:46:01.436Z,2.10
2023-05-13T15:48:29.059Z,3.28
2023-05-13T15:50:55.590Z,2.53
2023-05-13T15:53:22.183Z,2.45
2023-05-13T15:55:48.849Z,3.88
2023-05-13T15:58:15.422Z,2.50
2023-05-13T16:00:41.912Z,4.15
2023-05-13T16:03:08.509Z,2.42
2023-05-13T16:05:36.301Z,3.83
2023-05-13T16:08:02.950Z,2.55
2023-05-13T16:10:29.604Z,2.65
2023-05-13T16:12:56.107Z,2.42
2023-05-13T16:15:22.703Z,2.55
2023-05-13T16:17:49.284Z,2.80
2023-05-13T16:20:15.842Z,2.30
2023-05-13T16:22:43.351Z,2.65
2023-05-13T16:25:11.481Z,2.50
2023-05-13T16:27:39.239Z,2.20
2023-05-13T16:30:07.455Z,2.25
2023-05-13T16:32:34.918Z,2.22
2023-05-13T16:35:02.754Z,2.70
2023-05-13T16:37:29.809Z,2.22
2023-05-13T16:39:56.386Z,2.28
2023-05-13T16:42:23.190Z,2.38
2023-05-13T16:44:49.820Z,2.58
2023-05-13T16:47:16.503Z,2.13
2023-05-13T16:49:43.189Z,2.67
2023-05-13T16:52:09.801Z,2.38
2023-05-13T16:54:36.383Z,2.95
2023-05-13T16:57:02.952Z,3.30
2023-05-13T16:59:29.582Z,2.35
2023-05-13T17:01:56.284Z,2.38
2023-05-13T17:04:22.947Z,2.58
2023-05-13T17:06:49.557Z,2.67
2023-05-13T17:09:16.210Z,2.47
2023-05-13T17:11:43.488Z,2.63
2023-05-13T17:14:10.333Z,2.72
2023-05-13T17:16:37.110Z,2.42
2023-05-13T17:19:03.786Z,2.28
2023-05-13T17:21:30.456Z,2.28
2023-05-13T17:23:56.967Z,2.33
2023-05-13T17:26:23.495Z,2.15
2023-05-13T17:28:50.074Z,2.30
2023-05-13T17:31:16.822Z,2.20
2023-05-13T17:33:43.680Z,2.80
2023-05-13T17:36:10.890Z,2.70
2023-05-13T17:38:37.982Z,2.92
2023-05-13T17:41:05.078Z,2.40
2023-05-13T17:43:31.806Z,2.60
2023-05-13T17:45:58.443Z,2.80
2023-05-13T17:48:26.586Z,2.40
2023-05-13T17:50:53.303Z,3.00
2023-05-13T17:53:20.682Z,2.65
2023-05-13T17:55:50.575Z,2.80
2023-05-13T17:58:17.129Z,2.70
2023-05-13T18:00:43.756Z,2.72
2023-05-13T18:03:10.492Z,3.25
2023-05-13T18:05:37.453Z,2.72
2023-05-13T18:08:04.162Z,3.17
2023-05-13T18:10:30.996Z,2.70
2023-05-13T18:12:57.572Z,3.00
2023-05-13T18:15:24.111Z,2.70
2023-05-13T18:17:50.803Z,3.03
2023-05-13T18:20:18.160Z,2.67
2023-05-13T18:22:44.739Z,2.50
2023-05-13T18:25:11.582Z,2.90
2023-05-13T18:27:38.245Z,2.40
2023-05-13T18:30:06.148Z,2.63
2023-05-13T18:32:32.823Z,2.60
2023-05-13T18:34:59.391Z,2.50
2023-05-13T18:37:25.965Z,2.50
2023-05-13T18:39:52.629Z,2.20
2023-05-13T18:42:19.191Z,2.30
2023-05-13T18:44:45.857Z,3.05
2023-05-13T18:47:12.439Z,2.85
2023-05-13T18:49:39.157Z,2.78
2023-05-13T18:52:06.237Z,2.65
2023-05-13T18:54:32.855Z,2.50
2023-05-13T18:56:59.478Z,2.47
2023-05-13T18:59:26.074Z,3.03
2023-05-13T19:01:52.794Z,2.75
2023-05-13T19:04:19.739Z,2.50
2023-05-13T19:06:46.426Z,2.60
2023-05-13T19:09:13.008Z,3.03
2023-05-13T19:11:39.597Z,3.03
2023-05-13T19:14:06.641Z,2.67
2023-05-13T19:16:33.317Z,3.10
2023-05-13T19:18:59.909Z,2.80
2023-05-13T19:21:26.505Z,2.95
2023-05-13T19:23:53.082Z,2.67
2023-05-13T19:26:19.747Z,2.67
2023-05-13T19:28:46.764Z,2.58
2023-05-13T19:31:13.352Z,3.05
2023-05-13T19:33:40.310Z,2.67
2023-05-13T19:36:07.227Z,2.65
2023-05-13T19:38:34.908Z,3.10
2023-05-13T19:41:01.743Z,2.75
2023-05-13T19:43:28.285Z,2.53
2023-05-13T19:45:56.429Z,2.95
2023-05-13T19:48:23.107Z,3.17
2023-05-13T19:50:53.291Z,2.90
2023-05-13T19:53:21.633Z,3.58
2023-05-13T19:55:48.271Z,3.20
2023-05-13T19:58:15.632Z,3.65
2023-05-13T20:00:43.965Z,2.90
2023-05-13T20:03:11.066Z,3.10
2023-05-13T20:05:40.067Z,3.40
2023-05-13T20:08:06.920Z,3.22
2023-05-13T20:10:35.237Z,3.78
2023-05-13T20:13:03.954Z,2.78
2023-05-13T20:15:31.726Z,3.15
2023-05-13T20:17:58.478Z,3.30
2023-05-13T20:20:25.303Z,2.75
2023-05-13T20:22:52.094Z,3.47
2023-05-13T20:25:18.676Z,3.95
2023-05-13T20:27:45.362Z,3.35
2023-05-13T20:30:12.639Z,3.75
2023-05-13T20:32:39.320Z,4.25
2023-05-13T20:35:07.504Z,3.65
2023-05-13T20:37:34.341Z,4.22
2023-05-13T20:40:00.960Z,3.85
2023-05-13T20:42:27.537Z,4.00
2023-05-13T20:44:54.123Z,3.80
2023-05-13T20:47:20.953Z,4.45
2023-05-13T20:49:47.515Z,4.03
2023-05-13T20:52:14.173Z,4.10
2023-05-13T20:54:40.853Z,4.72
2023-05-13T20:57:07.497Z,4.28
2023-05-13T20:59:34.508Z,4.00
2023-05-13T21:02:01.100Z,4.68
2023-05-13T21:04:27.908Z,3.97
2023-05-13T21:06:54.456Z,4.38
2023-05-13T21:09:20.966Z,4.85
2023-05-13T21:11:47.534Z,4.30
2023-05-13T21:14:14.258Z,4.93
2023-05-13T21:16:40.814Z,4.90
2023-05-13T21:19:07.600Z,4.35
2023-05-13T21:21:34.203Z,4.75
2023-05-13T21:24:00.731Z,3.65
2023-05-13T21:26:27.339Z,5.28
2023-05-13T21:28:53.891Z,4.45
2023-05-13T21:31:20.546Z,4.85
2023-05-13T21:33:48.771Z,4.90
2023-05-13T21:36:15.355Z,4.97
2023-05-13T21:38:41.878Z,4.70
2023-05-13T21:41:08.481Z,4.38
2023-05-13T21:43:35.115Z,4.07
2023-05-13T21:46:03.168Z,4.63
2023-05-13T21:48:29.748Z,4.90
2023-05-13T21:50:56.415Z,5.10
2023-05-13T21:53:23.190Z,5.25
2023-05-13T21:55:50.250Z,4.85
2023-05-13T21:58:16.930Z,5.10
2023-05-13T22:00:43.568Z,5.32
2023-05-13T22:03:10.230Z,5.53
2023-05-13T22:05:42.198Z,5.93
2023-05-13T22:08:08.826Z,5.35
2023-05-13T22:10:35.378Z,5.70
2023-05-13T22:13:02.055Z,5.65
2023-05-13T22:15:28.701Z,5.30
2023-05-13T22:17:55.425Z,5.40
2023-05-13T22:20:22.463Z,5.65
2023-05-13T22:22:49.469Z,5.43
2023-05-13T22:25:16.221Z,6.32
2023-05-13T22:27:42.703Z,6.07
2023-05-13T22:30:09.489Z,5.80
2023-05-13T22:32:38.233Z,5.60
2023-05-13T22:35:06.413Z,5.90
2023-05-13T22:37:32.924Z,5.32
2023-05-13T22:39:59.465Z,5.65
2023-05-13T22:42:27.294Z,5.90
2023-05-13T22:44:53.794Z,5.55
2023-05-13T22:47:20.414Z,5.47
2023-05-13T22:49:46.919Z,5.30
2023-05-13T22:52:13.456Z,5.05
2023-05-13T22:54:39.927Z,6.32
2023-05-13T22:57:06.521Z,5.40
2023-05-13T22:59:33.041Z,6.15
2023-05-13T23:01:59.802Z,5.55
2023-05-13T23:04:26.581Z,6.32
2023-05-13T23:06:53.156Z,6.55
2023-05-13T23:09:19.786Z,5.90
2023-05-13T23:11:46.365Z,6.13
2023-05-13T23:14:13.044Z,7.13
2023-05-13T23:16:39.638Z,6.60
2023-05-13T23:19:06.256Z,6.35
2023-05-13T23:21:32.872Z,6.03
2023-05-13T23:23:59.519Z,7.15
2023-05-13T23:26:26.063Z,7.47
2023-05-13T23:28:52.694Z,6.78
2023-05-13T23:31:19.277Z,6.82
2023-05-13T23:33:45.910Z,7.20
2023-05-13T23:36:12.551Z,7.30
2023-05-13T23:38:39.642Z,7.72
2023-05-13T23:41:06.228Z,7.82
2023-05-13T23:43:32.754Z,7.38
2023-05-13T23:45:59.419Z,7.88
2023-05-13T23:48:29.068Z,7.07
2023-05-13T23:50:55.641Z,8.02
2023-05-13T23:53:22.184Z,8.07
2023-05-13T23:55:48.927Z,8.48
2023-05-13T23:58:15.730Z,8.68
